Lincoln, Nebraska
Current Conditions -  °F | °C
As of 3:54 PM on Thursday 27 Nov 2014 (Local Time) from KLNK Reporting Station
Clear Clear  
Wind Chill: 22°   Ceiling: Unl
Heat Index: 32°   Visibility: 10mi
Dew Point: 14°   Wind: 14mph
Humidity: 47%   Direction: 140°SE
Pressure: 30.29"   Gusts: NA
Location:  40.81°N, 96.71°W
Report Text: KLNK 272154Z 14012KT 10SM CLR 00/M10 A3029 RMK AO2 SLP274 T00001100
Loading
Personal Weather Stations






























Interactive Weather Map New forecast layout! Learn more

10-Day Weather Forecast

Advertisements
Track Severe Weather on mobile